Impacts METAR Board
IDs:

KSTL - St Louis/Lambert Int, MO, US

Updated at: 0700 UTC 21 Oct 2018
Potential Impact None Slight Moderate High
Time 20/19Z 20/20Z 20/21Z 20/22Z 20/23Z 21/00Z 21/01Z 21/02Z 21/03Z 21/04Z 21/05Z 21/06Z 21/07Z
Temp65 65 64 61 57 53 48 45 43 41 40 39 38
Dewpt29 26 25 25 27 27 25 21 22 22 23 22 22
Altim30.10 30.10 30.11 30.14 30.18 30.24 30.30 30.33 30.36 30.39 30.39 30.39 30.39
VIS10 10 10 10 10 10 10 10 10 10 10 10 10
CIG-- -- -- -- -- -- -- -- -- -- -- -- --
CoverCLRCLRCLRFEWCLRCLRCLRCLRCLRCLRCLRCLRCLR
FltCatVFRVFRVFRVFRVFRVFRVFRVFRVFRVFRVFRVFRVFR
WX--------------------------
WDir3003103003203303501036010350104030
WSpd17 18 20 22 17 18 13 14 10 6 6 10 5
WGst31 34 36 33 31 29 -- 26 -- -- -- -- --
Raw hourly METARs
KSTL 201851Z 30017G31KT 10SM CLR 18/M02 A3010 RMK AO2 PK WND 32031/1849 SLP189 T01831017
KSTL 201951Z 31018G34KT 10SM CLR 18/M03 A3010 RMK AO2 PK WND 32034/1949 SLP189 T01831033
KSTL 202051Z 30020G36KT 10SM CLR 18/M04 A3011 RMK AO2 PK WND 31036/1954 SLP195 T01781039 53005
KSTL 202151Z 32022G33KT 10SM FEW050 16/M04 A3014 RMK AO2 PK WND 31039/2134 SLP206 T01611039
KSTL 202251Z 33017G31KT 10SM CLR 14/M03 A3018 RMK AO2 PK WND 33033/2158 SLP221 T01391028
KSTL 202351Z 35018G29KT 10SM CLR 12/M03 A3024 RMK AO2 PK WND 34030/2255 SLP241 T01171028 10189 20117 53041
KSTL 210051Z 01013KT 10SM CLR 09/M04 A3030 RMK AO2 PK WND 36027/2355 SLP262 T00891039
KSTL 210151Z 36014G26KT 10SM CLR 07/M06 A3033 RMK AO2 PK WND 01031/0107 SLP272 T00721061
KSTL 210251Z 01010KT 10SM CLR 06/M06 A3036 RMK AO2 SLP282 T00611056 51039
KSTL 210351Z 35006KT 10SM CLR 05/M06 A3039 RMK AO2 SLP291 T00501056
KSTL 210451Z 01006KT 10SM CLR 04/M05 A3039 RMK AO2 SLP293 T00441050
KSTL 210551Z 04010KT 10SM CLR 04/M06 A3039 RMK AO2 SLP290 T00391056 10117 20039 401890039 50008
KSTL 210651Z 03005KT 10SM CLR 03/M06 A3039 RMK AO2 SLP291 T00331056



Page loaded:  07:54 UTC  |   12:54 AM Pacific  |   01:54 AM Mountain  |   02:54 AM Central  |   03:54 AM Eastern

 

ADVISORIES

FORECASTS

FORECASTS

OBSERVATIONS

USER TOOLS

ABOUT US